sensor_id;sensor_type;location;lat;lon;timestamp;P1;durP1;ratioP1;P2;durP2;ratioP2
52015;SDS011;38032;53.326;6.472;2023-07-24T00:00:17;11.65;;;5.80;;
52015;SDS011;38032;53.326;6.472;2023-07-24T00:02:43;10.95;;;5.70;;
52015;SDS011;38032;53.326;6.472;2023-07-24T00:05:09;10.75;;;5.53;;
52015;SDS011;38032;53.326;6.472;2023-07-24T00:07:35;10.45;;;5.40;;
52015;SDS011;38032;53.326;6.472;2023-07-24T00:10:01;10.98;;;5.55;;
52015;SDS011;38032;53.326;6.472;2023-07-24T00:12:28;11.45;;;6.22;;
52015;SDS011;38032;53.326;6.472;2023-07-24T00:14:54;12.60;;;5.40;;
52015;SDS011;38032;53.326;6.472;2023-07-24T00:17:20;7.28;;;5.03;;
52015;SDS011;38032;53.326;6.472;2023-07-24T00:19:46;10.20;;;5.75;;
52015;SDS011;38032;53.326;6.472;2023-07-24T00:22:12;11.50;;;5.43;;
52015;SDS011;38032;53.326;6.472;2023-07-24T00:24:38;9.32;;;5.53;;
52015;SDS011;38032;53.326;6.472;2023-07-24T00:27:04;10.07;;;5.82;;
52015;SDS011;38032;53.326;6.472;2023-07-24T00:29:30;9.30;;;4.72;;
52015;SDS011;38032;53.326;6.472;2023-07-24T00:31:56;11.60;;;5.88;;
52015;SDS011;38032;53.326;6.472;2023-07-24T00:34:21;10.85;;;5.95;;
52015;SDS011;38032;53.326;6.472;2023-07-24T00:36:47;8.93;;;4.47;;
52015;SDS011;38032;53.326;6.472;2023-07-24T00:39:14;9.57;;;5.15;;
52015;SDS011;38032;53.326;6.472;2023-07-24T00:41:40;10.23;;;4.82;;
52015;SDS011;38032;53.326;6.472;2023-07-24T00:44:07;7.90;;;4.78;;
52015;SDS011;38032;53.326;6.472;2023-07-24T00:46:33;11.98;;;5.35;;
52015;SDS011;38032;53.326;6.472;2023-07-24T00:49:02;9.40;;;4.57;;
52015;SDS011;38032;53.326;6.472;2023-07-24T00:51:29;10.35;;;5.15;;
52015;SDS011;38032;53.326;6.472;2023-07-24T00:53:56;9.70;;;5.25;;
52015;SDS011;38032;53.326;6.472;2023-07-24T00:56:25;9.88;;;5.40;;
52015;SDS011;38032;53.326;6.472;2023-07-24T00:58:52;11.65;;;5.03;;
52015;SDS011;38032;53.326;6.472;2023-07-24T01:01:21;10.98;;;5.85;;
52015;SDS011;38032;53.326;6.472;2023-07-24T01:03:47;11.15;;;5.13;;
52015;SDS011;38032;53.326;6.472;2023-07-24T01:06:14;11.57;;;5.65;;
52015;SDS011;38032;53.326;6.472;2023-07-24T01:08:40;12.50;;;6.30;;
52015;SDS011;38032;53.326;6.472;2023-07-24T01:11:09;11.90;;;5.43;;
52015;SDS011;38032;53.326;6.472;2023-07-24T01:13:42;9.18;;;5.55;;
52015;SDS011;38032;53.326;6.472;2023-07-24T01:16:15;9.80;;;5.20;;
52015;SDS011;38032;53.326;6.472;2023-07-24T01:18:46;12.15;;;5.90;;
52015;SDS011;38032;53.326;6.472;2023-07-24T01:21:16;10.73;;;5.65;;
52015;SDS011;38032;53.326;6.472;2023-07-24T01:26:34;11.07;;;6.50;;
52015;SDS011;38032;53.326;6.472;2023-07-24T01:29:00;10.02;;;6.03;;
52015;SDS011;38032;53.326;6.472;2023-07-24T01:31:26;11.50;;;6.32;;
52015;SDS011;38032;53.326;6.472;2023-07-24T01:33:52;9.50;;;5.30;;
52015;SDS011;38032;53.326;6.472;2023-07-24T01:36:18;15.27;;;7.25;;
52015;SDS011;38032;53.326;6.472;2023-07-24T01:38:45;11.35;;;6.85;;
52015;SDS011;38032;53.326;6.472;2023-07-24T01:41:13;15.10;;;6.13;;
52015;SDS011;38032;53.326;6.472;2023-07-24T01:43:39;14.30;;;7.50;;
52015;SDS011;38032;53.326;6.472;2023-07-24T01:46:05;11.23;;;5.90;;
52015;SDS011;38032;53.326;6.472;2023-07-24T01:48:31;14.02;;;6.53;;
52015;SDS011;38032;53.326;6.472;2023-07-24T01:50:57;11.20;;;7.15;;
52015;SDS011;38032;53.326;6.472;2023-07-24T01:53:23;10.98;;;6.72;;
52015;SDS011;38032;53.326;6.472;2023-07-24T01:55:49;11.82;;;7.53;;
52015;SDS011;38032;53.326;6.472;2023-07-24T01:58:15;13.00;;;7.05;;
52015;SDS011;38032;53.326;6.472;2023-07-24T02:00:40;11.65;;;6.93;;
52015;SDS011;38032;53.326;6.472;2023-07-24T02:03:06;13.23;;;7.78;;
52015;SDS011;38032;53.326;6.472;2023-07-24T02:05:32;17.50;;;7.40;;
52015;SDS011;38032;53.326;6.472;2023-07-24T02:07:59;12.75;;;7.97;;
52015;SDS011;38032;53.326;6.472;2023-07-24T02:10:25;10.63;;;7.03;;
52015;SDS011;38032;53.326;6.472;2023-07-24T02:12:51;13.00;;;7.57;;
52015;SDS011;38032;53.326;6.472;2023-07-24T02:15:17;13.90;;;8.40;;
52015;SDS011;38032;53.326;6.472;2023-07-24T02:17:43;12.98;;;7.60;;
52015;SDS011;38032;53.326;6.472;2023-07-24T02:20:09;13.32;;;7.40;;
52015;SDS011;38032;53.326;6.472;2023-07-24T02:22:35;12.40;;;7.40;;
52015;SDS011;38032;53.326;6.472;2023-07-24T02:25:00;11.13;;;7.00;;
52015;SDS011;38032;53.326;6.472;2023-07-24T02:27:27;9.73;;;6.18;;
52015;SDS011;38032;53.326;6.472;2023-07-24T02:29:56;15.13;;;7.30;;
52015;SDS011;38032;53.326;6.472;2023-07-24T02:32:22;13.60;;;6.75;;
52015;SDS011;38032;53.326;6.472;2023-07-24T02:34:50;8.55;;;6.10;;
52015;SDS011;38032;53.326;6.472;2023-07-24T02:37:16;11.38;;;6.20;;
52015;SDS011;38032;53.326;6.472;2023-07-24T02:39:43;10.10;;;6.47;;
52015;SDS011;38032;53.326;6.472;2023-07-24T02:42:08;12.27;;;7.38;;
52015;SDS011;38032;53.326;6.472;2023-07-24T02:44:34;13.13;;;7.25;;
52015;SDS011;38032;53.326;6.472;2023-07-24T02:47:00;13.40;;;7.45;;
52015;SDS011;38032;53.326;6.472;2023-07-24T02:49:27;13.55;;;7.18;;
52015;SDS011;38032;53.326;6.472;2023-07-24T02:51:53;16.33;;;7.82;;
52015;SDS011;38032;53.326;6.472;2023-07-24T02:54:19;13.32;;;7.45;;
52015;SDS011;38032;53.326;6.472;2023-07-24T02:56:45;12.85;;;7.75;;
52015;SDS011;38032;53.326;6.472;2023-07-24T02:59:11;14.05;;;7.80;;
52015;SDS011;38032;53.326;6.472;2023-07-24T03:01:37;16.80;;;8.73;;
52015;SDS011;38032;53.326;6.472;2023-07-24T03:04:02;14.63;;;8.32;;
52015;SDS011;38032;53.326;6.472;2023-07-24T03:06:30;12.60;;;7.13;;
52015;SDS011;38032;53.326;6.472;2023-07-24T03:08:57;12.20;;;7.82;;
52015;SDS011;38032;53.326;6.472;2023-07-24T03:11:23;13.07;;;7.63;;
52015;SDS011;38032;53.326;6.472;2023-07-24T03:13:49;12.27;;;7.63;;
52015;SDS011;38032;53.326;6.472;2023-07-24T03:16:15;13.65;;;8.25;;
52015;SDS011;38032;53.326;6.472;2023-07-24T03:18:42;11.88;;;8.18;;
52015;SDS011;38032;53.326;6.472;2023-07-24T03:21:08;15.88;;;8.85;;
52015;SDS011;38032;53.326;6.472;2023-07-24T03:23:34;13.25;;;8.73;;
52015;SDS011;38032;53.326;6.472;2023-07-24T03:26:00;14.85;;;8.45;;
52015;SDS011;38032;53.326;6.472;2023-07-24T03:28:26;14.75;;;9.15;;
52015;SDS011;38032;53.326;6.472;2023-07-24T03:30:52;13.50;;;9.00;;
52015;SDS011;38032;53.326;6.472;2023-07-24T03:33:18;11.88;;;8.45;;
52015;SDS011;38032;53.326;6.472;2023-07-24T03:35:44;13.68;;;9.18;;
52015;SDS011;38032;53.326;6.472;2023-07-24T03:38:10;12.55;;;7.88;;
52015;SDS011;38032;53.326;6.472;2023-07-24T03:40:36;11.80;;;8.40;;
52015;SDS011;38032;53.326;6.472;2023-07-24T03:43:01;13.30;;;8.30;;
52015;SDS011;38032;53.326;6.472;2023-07-24T03:45:27;14.90;;;8.48;;
52015;SDS011;38032;53.326;6.472;2023-07-24T03:47:53;13.20;;;8.45;;
52015;SDS011;38032;53.326;6.472;2023-07-24T03:50:19;12.88;;;8.15;;
52015;SDS011;38032;53.326;6.472;2023-07-24T03:52:45;13.90;;;8.48;;
52015;SDS011;38032;53.326;6.472;2023-07-24T03:55:11;12.38;;;8.38;;
52015;SDS011;38032;53.326;6.472;2023-07-24T03:57:37;15.00;;;8.90;;
52015;SDS011;38032;53.326;6.472;2023-07-24T04:00:03;11.98;;;7.65;;
52015;SDS011;38032;53.326;6.472;2023-07-24T04:02:29;12.43;;;7.35;;
52015;SDS011;38032;53.326;6.472;2023-07-24T04:04:55;12.82;;;7.85;;
52015;SDS011;38032;53.326;6.472;2023-07-24T04:07:21;16.08;;;7.55;;
52015;SDS011;38032;53.326;6.472;2023-07-24T04:09:47;9.07;;;6.63;;
52015;SDS011;38032;53.326;6.472;2023-07-24T04:12:13;12.75;;;7.68;;
52015;SDS011;38032;53.326;6.472;2023-07-24T04:14:39;9.70;;;6.80;;
52015;SDS011;38032;53.326;6.472;2023-07-24T04:17:05;12.95;;;7.90;;
52015;SDS011;38032;53.326;6.472;2023-07-24T04:19:31;11.73;;;7.45;;
52015;SDS011;38032;53.326;6.472;2023-07-24T04:21:56;12.80;;;7.90;;
52015;SDS011;38032;53.326;6.472;2023-07-24T04:24:22;11.50;;;6.65;;
52015;SDS011;38032;53.326;6.472;2023-07-24T04:26:48;13.20;;;7.80;;
52015;SDS011;38032;53.326;6.472;2023-07-24T04:29:14;11.55;;;7.18;;
52015;SDS011;38032;53.326;6.472;2023-07-24T04:31:40;12.23;;;7.78;;
52015;SDS011;38032;53.326;6.472;2023-07-24T04:34:06;11.85;;;7.15;;
52015;SDS011;38032;53.326;6.472;2023-07-24T04:36:32;10.85;;;6.78;;
52015;SDS011;38032;53.326;6.472;2023-07-24T04:38:58;10.98;;;6.90;;
52015;SDS011;38032;53.326;6.472;2023-07-24T04:41:23;9.48;;;6.53;;
52015;SDS011;38032;53.326;6.472;2023-07-24T04:43:49;10.00;;;6.22;;
52015;SDS011;38032;53.326;6.472;2023-07-24T04:46:15;12.40;;;6.90;;
52015;SDS011;38032;53.326;6.472;2023-07-24T04:48:41;13.05;;;6.97;;
52015;SDS011;38032;53.326;6.472;2023-07-24T04:51:07;10.20;;;6.65;;
52015;SDS011;38032;53.326;6.472;2023-07-24T04:53:33;13.52;;;7.85;;
52015;SDS011;38032;53.326;6.472;2023-07-24T04:55:59;13.88;;;7.20;;
52015;SDS011;38032;53.326;6.472;2023-07-24T04:58:25;9.00;;;6.03;;
52015;SDS011;38032;53.326;6.472;2023-07-24T05:00:51;10.93;;;7.03;;
52015;SDS011;38032;53.326;6.472;2023-07-24T05:03:16;13.70;;;7.35;;
52015;SDS011;38032;53.326;6.472;2023-07-24T05:05:43;11.63;;;6.65;;
52015;SDS011;38032;53.326;6.472;2023-07-24T05:08:12;11.13;;;7.03;;
52015;SDS011;38032;53.326;6.472;2023-07-24T05:10:38;13.77;;;7.38;;
52015;SDS011;38032;53.326;6.472;2023-07-24T05:13:04;14.35;;;7.22;;
52015;SDS011;38032;53.326;6.472;2023-07-24T05:15:30;12.75;;;7.53;;
52015;SDS011;38032;53.326;6.472;2023-07-24T05:17:56;10.75;;;6.78;;
52015;SDS011;38032;53.326;6.472;2023-07-24T05:20:22;12.65;;;7.10;;
52015;SDS011;38032;53.326;6.472;2023-07-24T05:22:48;11.13;;;7.65;;
52015;SDS011;38032;53.326;6.472;2023-07-24T05:25:13;11.75;;;7.05;;
52015;SDS011;38032;53.326;6.472;2023-07-24T05:27:39;13.35;;;8.00;;
52015;SDS011;38032;53.326;6.472;2023-07-24T05:30:05;11.10;;;6.95;;
52015;SDS011;38032;53.326;6.472;2023-07-24T05:32:32;13.40;;;8.13;;
52015;SDS011;38032;53.326;6.472;2023-07-24T05:34:58;10.75;;;7.28;;
52015;SDS011;38032;53.326;6.472;2023-07-24T05:37:23;11.25;;;7.32;;
52015;SDS011;38032;53.326;6.472;2023-07-24T05:39:49;9.27;;;6.30;;
52015;SDS011;38032;53.326;6.472;2023-07-24T05:42:16;13.20;;;8.07;;
52015;SDS011;38032;53.326;6.472;2023-07-24T05:44:42;8.90;;;6.32;;
52015;SDS011;38032;53.326;6.472;2023-07-24T05:47:08;11.70;;;6.00;;
52015;SDS011;38032;53.326;6.472;2023-07-24T05:49:34;9.38;;;6.25;;
52015;SDS011;38032;53.326;6.472;2023-07-24T05:51:59;11.68;;;7.22;;
52015;SDS011;38032;53.326;6.472;2023-07-24T05:54:25;10.52;;;6.30;;
52015;SDS011;38032;53.326;6.472;2023-07-24T05:56:52;14.15;;;7.03;;
52015;SDS011;38032;53.326;6.472;2023-07-24T05:59:17;11.23;;;6.35;;
52015;SDS011;38032;53.326;6.472;2023-07-24T06:01:43;12.65;;;6.97;;
52015;SDS011;38032;53.326;6.472;2023-07-24T06:04:09;10.38;;;6.53;;
52015;SDS011;38032;53.326;6.472;2023-07-24T06:06:35;12.90;;;6.72;;
52015;SDS011;38032;53.326;6.472;2023-07-24T06:09:01;9.57;;;6.63;;
52015;SDS011;38032;53.326;6.472;2023-07-24T06:11:28;12.90;;;7.05;;
52015;SDS011;38032;53.326;6.472;2023-07-24T06:13:54;12.18;;;7.93;;
52015;SDS011;38032;53.326;6.472;2023-07-24T06:16:20;11.45;;;8.38;;
52015;SDS011;38032;53.326;6.472;2023-07-24T06:18:46;13.35;;;8.05;;
52015;SDS011;38032;53.326;6.472;2023-07-24T06:21:11;12.65;;;8.50;;
52015;SDS011;38032;53.326;6.472;2023-07-24T06:23:37;11.98;;;8.07;;
52015;SDS011;38032;53.326;6.472;2023-07-24T06:26:03;12.65;;;8.50;;
52015;SDS011;38032;53.326;6.472;2023-07-24T06:28:29;11.73;;;7.55;;
52015;SDS011;38032;53.326;6.472;2023-07-24T06:30:56;11.15;;;6.95;;
52015;SDS011;38032;53.326;6.472;2023-07-24T06:33:22;12.00;;;7.53;;
52015;SDS011;38032;53.326;6.472;2023-07-24T06:35:49;9.48;;;6.63;;
52015;SDS011;38032;53.326;6.472;2023-07-24T06:38:15;9.35;;;6.60;;
52015;SDS011;38032;53.326;6.472;2023-07-24T06:40:42;12.00;;;7.80;;
52015;SDS011;38032;53.326;6.472;2023-07-24T06:43:08;11.70;;;6.28;;
52015;SDS011;38032;53.326;6.472;2023-07-24T06:45:34;13.82;;;7.35;;
52015;SDS011;38032;53.326;6.472;2023-07-24T06:48:00;11.35;;;7.55;;
52015;SDS011;38032;53.326;6.472;2023-07-24T06:50:25;14.23;;;7.38;;
52015;SDS011;38032;53.326;6.472;2023-07-24T06:52:51;11.52;;;7.43;;
52015;SDS011;38032;53.326;6.472;2023-07-24T06:55:19;13.50;;;7.38;;
52015;SDS011;38032;53.326;6.472;2023-07-24T06:57:45;9.10;;;6.47;;
52015;SDS011;38032;53.326;6.472;2023-07-24T07:00:11;12.35;;;7.10;;
52015;SDS011;38032;53.326;6.472;2023-07-24T07:02:38;10.50;;;7.00;;
52015;SDS011;38032;53.326;6.472;2023-07-24T07:05:04;11.68;;;6.75;;
52015;SDS011;38032;53.326;6.472;2023-07-24T07:07:30;10.95;;;7.43;;
52015;SDS011;38032;53.326;6.472;2023-07-24T07:09:56;9.30;;;6.43;;
52015;SDS011;38032;53.326;6.472;2023-07-24T07:12:22;11.70;;;7.20;;
52015;SDS011;38032;53.326;6.472;2023-07-24T07:14:48;9.18;;;6.28;;
52015;SDS011;38032;53.326;6.472;2023-07-24T07:17:14;12.15;;;6.40;;
52015;SDS011;38032;53.326;6.472;2023-07-24T07:19:40;11.93;;;6.80;;
52015;SDS011;38032;53.326;6.472;2023-07-24T07:22:06;10.13;;;7.05;;
52015;SDS011;38032;53.326;6.472;2023-07-24T07:24:32;12.70;;;7.45;;
52015;SDS011;38032;53.326;6.472;2023-07-24T07:26:57;9.00;;;6.28;;
52015;SDS011;38032;53.326;6.472;2023-07-24T07:29:23;11.77;;;6.82;;
52015;SDS011;38032;53.326;6.472;2023-07-24T07:31:49;11.27;;;6.97;;
52015;SDS011;38032;53.326;6.472;2023-07-24T07:34:15;9.38;;;7.10;;
52015;SDS011;38032;53.326;6.472;2023-07-24T07:36:41;10.48;;;6.47;;
52015;SDS011;38032;53.326;6.472;2023-07-24T07:39:07;12.90;;;6.55;;
52015;SDS011;38032;53.326;6.472;2023-07-24T07:41:34;12.75;;;7.10;;
52015;SDS011;38032;53.326;6.472;2023-07-24T07:44:00;8.95;;;5.82;;
52015;SDS011;38032;53.326;6.472;2023-07-24T07:46:26;12.27;;;6.03;;
52015;SDS011;38032;53.326;6.472;2023-07-24T07:48:52;10.15;;;6.00;;
52015;SDS011;38032;53.326;6.472;2023-07-24T07:51:18;11.50;;;6.97;;
52015;SDS011;38032;53.326;6.472;2023-07-24T07:53:44;10.35;;;6.15;;
52015;SDS011;38032;53.326;6.472;2023-07-24T07:56:10;11.77;;;6.57;;
52015;SDS011;38032;53.326;6.472;2023-07-24T07:58:36;9.95;;;6.25;;
52015;SDS011;38032;53.326;6.472;2023-07-24T08:01:06;12.00;;;6.53;;
52015;SDS011;38032;53.326;6.472;2023-07-24T08:03:32;9.73;;;5.88;;
52015;SDS011;38032;53.326;6.472;2023-07-24T08:05:59;9.30;;;6.20;;
52015;SDS011;38032;53.326;6.472;2023-07-24T08:08:25;8.00;;;5.22;;
52015;SDS011;38032;53.326;6.472;2023-07-24T08:10:51;11.52;;;6.13;;
52015;SDS011;38032;53.326;6.472;2023-07-24T08:13:17;14.38;;;6.28;;
52015;SDS011;38032;53.326;6.472;2023-07-24T08:15:43;11.23;;;5.90;;
52015;SDS011;38032;53.326;6.472;2023-07-24T08:18:09;11.15;;;5.43;;
52015;SDS011;38032;53.326;6.472;2023-07-24T08:20:36;12.70;;;5.85;;
52015;SDS011;38032;53.326;6.472;2023-07-24T08:23:02;9.65;;;5.70;;
52015;SDS011;38032;53.326;6.472;2023-07-24T08:25:28;9.52;;;5.32;;
52015;SDS011;38032;53.326;6.472;2023-07-24T08:27:54;9.77;;;5.38;;
52015;SDS011;38032;53.326;6.472;2023-07-24T08:30:20;11.43;;;5.25;;
52015;SDS011;38032;53.326;6.472;2023-07-24T08:32:46;11.35;;;5.50;;
52015;SDS011;38032;53.326;6.472;2023-07-24T08:35:14;10.57;;;5.22;;
52015;SDS011;38032;53.326;6.472;2023-07-24T08:37:42;10.82;;;5.72;;
52015;SDS011;38032;53.326;6.472;2023-07-24T08:40:09;11.75;;;5.20;;
52015;SDS011;38032;53.326;6.472;2023-07-24T08:42:40;10.93;;;5.85;;
52015;SDS011;38032;53.326;6.472;2023-07-24T08:45:12;9.20;;;5.05;;
52015;SDS011;38032;53.326;6.472;2023-07-24T08:47:41;8.35;;;5.50;;
52015;SDS011;38032;53.326;6.472;2023-07-24T08:50:09;11.30;;;5.75;;
52015;SDS011;38032;53.326;6.472;2023-07-24T08:52:38;10.02;;;5.80;;
52015;SDS011;38032;53.326;6.472;2023-07-24T08:55:04;11.32;;;5.47;;
52015;SDS011;38032;53.326;6.472;2023-07-24T08:57:31;8.98;;;6.35;;
52015;SDS011;38032;53.326;6.472;2023-07-24T08:59:57;9.68;;;6.05;;
52015;SDS011;38032;53.326;6.472;2023-07-24T09:02:23;9.23;;;5.50;;
52015;SDS011;38032;53.326;6.472;2023-07-24T09:04:49;8.32;;;4.88;;
52015;SDS011;38032;53.326;6.472;2023-07-24T09:07:15;8.77;;;5.22;;
52015;SDS011;38032;53.326;6.472;2023-07-24T09:09:41;9.23;;;5.47;;
52015;SDS011;38032;53.326;6.472;2023-07-24T09:12:07;9.00;;;5.53;;
52015;SDS011;38032;53.326;6.472;2023-07-24T09:14:33;10.77;;;5.72;;
52015;SDS011;38032;53.326;6.472;2023-07-24T09:17:04;12.35;;;5.95;;
52015;SDS011;38032;53.326;6.472;2023-07-24T09:19:32;9.73;;;5.65;;
52015;SDS011;38032;53.326;6.472;2023-07-24T09:22:08;12.30;;;5.65;;
52015;SDS011;38032;53.326;6.472;2023-07-24T09:24:50;33.55;;;14.35;;
52015;SDS011;38032;53.326;6.472;2023-07-24T09:27:17;12.32;;;6.90;;
52015;SDS011;38032;53.326;6.472;2023-07-24T09:29:44;10.35;;;6.15;;
52015;SDS011;38032;53.326;6.472;2023-07-24T09:32:18;12.32;;;6.03;;
52015;SDS011;38032;53.326;6.472;2023-07-24T09:34:46;14.63;;;6.60;;
52015;SDS011;38032;53.326;6.472;2023-07-24T09:37:22;8.88;;;5.32;;
52015;SDS011;38032;53.326;6.472;2023-07-24T09:40:00;9.85;;;4.88;;
52015;SDS011;38032;53.326;6.472;2023-07-24T09:42:31;9.00;;;5.13;;
52015;SDS011;38032;53.326;6.472;2023-07-24T09:45:00;9.68;;;5.57;;
52015;SDS011;38032;53.326;6.472;2023-07-24T09:47:26;9.20;;;5.72;;
52015;SDS011;38032;53.326;6.472;2023-07-24T09:49:53;10.13;;;4.97;;
52015;SDS011;38032;53.326;6.472;2023-07-24T09:52:19;8.63;;;4.85;;
52015;SDS011;38032;53.326;6.472;2023-07-24T09:54:49;12.45;;;6.60;;
52015;SDS011;38032;53.326;6.472;2023-07-24T09:57:30;16.90;;;7.18;;
52015;SDS011;38032;53.326;6.472;2023-07-24T09:59:57;11.45;;;6.35;;
52015;SDS011;38032;53.326;6.472;2023-07-24T10:02:24;8.65;;;5.50;;
52015;SDS011;38032;53.326;6.472;2023-07-24T10:04:50;7.55;;;4.50;;
52015;SDS011;38032;53.326;6.472;2023-07-24T10:07:16;7.88;;;4.53;;
52015;SDS011;38032;53.326;6.472;2023-07-24T10:09:46;15.38;;;4.88;;
52015;SDS011;38032;53.326;6.472;2023-07-24T10:12:14;17.73;;;5.25;;
52015;SDS011;38032;53.326;6.472;2023-07-24T10:14:42;16.58;;;5.95;;
52015;SDS011;38032;53.326;6.472;2023-07-24T10:17:09;13.80;;;5.82;;
52015;SDS011;38032;53.326;6.472;2023-07-24T10:19:36;13.20;;;5.97;;
52015;SDS011;38032;53.326;6.472;2023-07-24T10:22:04;10.18;;;4.97;;
52015;SDS011;38032;53.326;6.472;2023-07-24T10:24:30;7.80;;;5.20;;
52015;SDS011;38032;53.326;6.472;2023-07-24T10:26:57;7.50;;;5.30;;
52015;SDS011;38032;53.326;6.472;2023-07-24T10:29:24;9.68;;;4.90;;
52015;SDS011;38032;53.326;6.472;2023-07-24T10:31:52;9.35;;;5.00;;
52015;SDS011;38032;53.326;6.472;2023-07-24T10:34:19;7.75;;;5.35;;
52015;SDS011;38032;53.326;6.472;2023-07-24T10:36:45;8.95;;;5.10;;
52015;SDS011;38032;53.326;6.472;2023-07-24T10:39:14;8.90;;;4.90;;
52015;SDS011;38032;53.326;6.472;2023-07-24T10:41:42;7.18;;;3.72;;
52015;SDS011;38032;53.326;6.472;2023-07-24T10:44:10;5.15;;;3.25;;
52015;SDS011;38032;53.326;6.472;2023-07-24T10:46:37;5.45;;;3.70;;
52015;SDS011;38032;53.326;6.472;2023-07-24T10:49:05;6.45;;;4.18;;
52015;SDS011;38032;53.326;6.472;2023-07-24T10:51:33;6.15;;;4.50;;
52015;SDS011;38032;53.326;6.472;2023-07-24T10:54:02;7.05;;;4.75;;
52015;SDS011;38032;53.326;6.472;2023-07-24T10:56:29;7.13;;;4.82;;
52015;SDS011;38032;53.326;6.472;2023-07-24T10:58:55;6.80;;;4.90;;
52015;SDS011;38032;53.326;6.472;2023-07-24T11:01:21;6.85;;;4.88;;
52015;SDS011;38032;53.326;6.472;2023-07-24T11:03:49;8.15;;;4.85;;
52015;SDS011;38032;53.326;6.472;2023-07-24T11:06:16;6.55;;;5.60;;
52015;SDS011;38032;53.326;6.472;2023-07-24T11:08:50;7.20;;;5.85;;
52015;SDS011;38032;53.326;6.472;2023-07-24T11:11:18;8.75;;;6.45;;
52015;SDS011;38032;53.326;6.472;2023-07-24T11:13:44;7.22;;;5.88;;
52015;SDS011;38032;53.326;6.472;2023-07-24T11:16:10;7.93;;;5.30;;
52015;SDS011;38032;53.326;6.472;2023-07-24T11:18:44;11.15;;;5.78;;
52015;SDS011;38032;53.326;6.472;2023-07-24T11:21:12;7.97;;;5.97;;
52015;SDS011;38032;53.326;6.472;2023-07-24T11:23:44;8.02;;;5.97;;
52015;SDS011;38032;53.326;6.472;2023-07-24T11:26:14;8.15;;;5.65;;
52015;SDS011;38032;53.326;6.472;2023-07-24T11:28:41;7.93;;;5.53;;
52015;SDS011;38032;53.326;6.472;2023-07-24T11:31:07;8.77;;;6.00;;
52015;SDS011;38032;53.326;6.472;2023-07-24T11:33:33;7.18;;;5.47;;
52015;SDS011;38032;53.326;6.472;2023-07-24T11:36:00;8.13;;;5.47;;
52015;SDS011;38032;53.326;6.472;2023-07-24T11:38:26;7.05;;;5.40;;
52015;SDS011;38032;53.326;6.472;2023-07-24T11:40:53;8.20;;;5.60;;
52015;SDS011;38032;53.326;6.472;2023-07-24T11:43:21;9.30;;;5.15;;
52015;SDS011;38032;53.326;6.472;2023-07-24T11:45:49;9.18;;;6.40;;
52015;SDS011;38032;53.326;6.472;2023-07-24T11:48:17;7.43;;;5.90;;
52015;SDS011;38032;53.326;6.472;2023-07-24T11:50:45;8.73;;;6.90;;
52015;SDS011;38032;53.326;6.472;2023-07-24T11:53:29;7.75;;;5.70;;
52015;SDS011;38032;53.326;6.472;2023-07-24T11:55:58;7.07;;;5.75;;
52015;SDS011;38032;53.326;6.472;2023-07-24T11:58:26;7.00;;;6.00;;
52015;SDS011;38032;53.326;6.472;2023-07-24T12:00:53;6.97;;;5.53;;
52015;SDS011;38032;53.326;6.472;2023-07-24T12:03:21;7.35;;;5.40;;
52015;SDS011;38032;53.326;6.472;2023-07-24T12:05:49;8.02;;;5.53;;
52015;SDS011;38032;53.326;6.472;2023-07-24T12:08:16;7.10;;;5.20;;
52015;SDS011;38032;53.326;6.472;2023-07-24T12:10:44;7.25;;;5.63;;
52015;SDS011;38032;53.326;6.472;2023-07-24T12:13:10;7.75;;;5.70;;
52015;SDS011;38032;53.326;6.472;2023-07-24T12:15:36;6.50;;;5.70;;
52015;SDS011;38032;53.326;6.472;2023-07-24T12:18:03;7.93;;;5.50;;
52015;SDS011;38032;53.326;6.472;2023-07-24T12:20:29;9.10;;;5.07;;
52015;SDS011;38032;53.326;6.472;2023-07-24T12:22:56;6.80;;;4.80;;
52015;SDS011;38032;53.326;6.472;2023-07-24T12:25:22;7.40;;;5.00;;
52015;SDS011;38032;53.326;6.472;2023-07-24T12:27:49;5.72;;;4.57;;
52015;SDS011;38032;53.326;6.472;2023-07-24T12:30:15;6.72;;;4.88;;
52015;SDS011;38032;53.326;6.472;2023-07-24T12:32:41;6.63;;;4.57;;
52015;SDS011;38032;53.326;6.472;2023-07-24T12:35:07;5.32;;;4.60;;
52015;SDS011;38032;53.326;6.472;2023-07-24T12:37:34;6.88;;;3.92;;
52015;SDS011;38032;53.326;6.472;2023-07-24T12:40:00;7.43;;;4.07;;
52015;SDS011;38032;53.326;6.472;2023-07-24T12:42:26;5.10;;;3.65;;
52015;SDS011;38032;53.326;6.472;2023-07-24T12:44:52;6.93;;;4.28;;
52015;SDS011;38032;53.326;6.472;2023-07-24T12:47:18;6.45;;;3.72;;
52015;SDS011;38032;53.326;6.472;2023-07-24T12:49:44;5.30;;;4.60;;
52015;SDS011;38032;53.326;6.472;2023-07-24T12:52:10;6.10;;;4.25;;
52015;SDS011;38032;53.326;6.472;2023-07-24T12:54:36;4.70;;;4.13;;
52015;SDS011;38032;53.326;6.472;2023-07-24T12:57:02;3.92;;;3.10;;
52015;SDS011;38032;53.326;6.472;2023-07-24T12:59:29;3.80;;;2.10;;
52015;SDS011;38032;53.326;6.472;2023-07-24T13:01:54;3.83;;;1.83;;
52015;SDS011;38032;53.326;6.472;2023-07-24T13:04:22;5.68;;;2.15;;
52015;SDS011;38032;53.326;6.472;2023-07-24T13:06:48;3.05;;;2.00;;
52015;SDS011;38032;53.326;6.472;2023-07-24T13:09:14;2.65;;;1.90;;
52015;SDS011;38032;53.326;6.472;2023-07-24T13:11:40;3.13;;;2.10;;
52015;SDS011;38032;53.326;6.472;2023-07-24T13:14:06;4.05;;;2.00;;
52015;SDS011;38032;53.326;6.472;2023-07-24T13:16:32;3.88;;;2.15;;
52015;SDS011;38032;53.326;6.472;2023-07-24T13:18:58;3.20;;;2.20;;
52015;SDS011;38032;53.326;6.472;2023-07-24T13:21:24;4.38;;;2.30;;
52015;SDS011;38032;53.326;6.472;2023-07-24T13:23:49;5.10;;;2.30;;
52015;SDS011;38032;53.326;6.472;2023-07-24T13:26:16;6.95;;;2.47;;
52015;SDS011;38032;53.326;6.472;2023-07-24T13:28:42;8.25;;;2.85;;
52015;SDS011;38032;53.326;6.472;2023-07-24T13:31:13;6.22;;;2.30;;
52015;SDS011;38032;53.326;6.472;2023-07-24T13:33:40;6.00;;;2.47;;
52015;SDS011;38032;53.326;6.472;2023-07-24T13:36:06;4.72;;;2.20;;
52015;SDS011;38032;53.326;6.472;2023-07-24T13:38:32;6.57;;;2.20;;
52015;SDS011;38032;53.326;6.472;2023-07-24T13:40:58;4.18;;;2.20;;
52015;SDS011;38032;53.326;6.472;2023-07-24T13:43:24;5.40;;;2.60;;
52015;SDS011;38032;53.326;6.472;2023-07-24T13:45:50;5.30;;;2.70;;
52015;SDS011;38032;53.326;6.472;2023-07-24T13:48:16;6.50;;;2.60;;
52015;SDS011;38032;53.326;6.472;2023-07-24T13:50:42;5.25;;;2.97;;
52015;SDS011;38032;53.326;6.472;2023-07-24T13:53:08;4.72;;;2.85;;
52015;SDS011;38032;53.326;6.472;2023-07-24T13:55:34;7.28;;;2.90;;
52015;SDS011;38032;53.326;6.472;2023-07-24T13:58:00;5.65;;;2.88;;
52015;SDS011;38032;53.326;6.472;2023-07-24T14:00:26;6.68;;;2.60;;
52015;SDS011;38032;53.326;6.472;2023-07-24T14:02:52;5.18;;;2.90;;
52015;SDS011;38032;53.326;6.472;2023-07-24T14:05:18;5.93;;;2.88;;
52015;SDS011;38032;53.326;6.472;2023-07-24T14:07:44;6.40;;;3.22;;
52015;SDS011;38032;53.326;6.472;2023-07-24T14:10:10;5.72;;;2.38;;
52015;SDS011;38032;53.326;6.472;2023-07-24T14:12:36;8.50;;;2.80;;
52015;SDS011;38032;53.326;6.472;2023-07-24T14:15:02;7.05;;;2.65;;
52015;SDS011;38032;53.326;6.472;2023-07-24T14:17:28;5.38;;;2.55;;
52015;SDS011;38032;53.326;6.472;2023-07-24T14:19:54;6.57;;;3.00;;
52015;SDS011;38032;53.326;6.472;2023-07-24T14:22:20;5.75;;;2.53;;
52015;SDS011;38032;53.326;6.472;2023-07-24T14:24:46;9.45;;;2.63;;
52015;SDS011;38032;53.326;6.472;2023-07-24T14:27:13;5.28;;;2.58;;
52015;SDS011;38032;53.326;6.472;2023-07-24T14:29:39;6.07;;;2.30;;
52015;SDS011;38032;53.326;6.472;2023-07-24T14:32:06;4.68;;;2.10;;
52015;SDS011;38032;53.326;6.472;2023-07-24T14:34:32;4.80;;;2.15;;
52015;SDS011;38032;53.326;6.472;2023-07-24T14:36:58;9.07;;;2.20;;
52015;SDS011;38032;53.326;6.472;2023-07-24T14:39:24;5.05;;;2.05;;